Time;durP1;ratioP1;P1;durP2;ratioP2;P2;SDS_P1;SDS_P2;PMS_P1;PMS_P2;Temp;Humidity;BMP_temperature;BMP_pressure;BME280_temperature;BME280_humidity;BME280_pressure;Samples;Min_cycle;Max_cycle;Signal;HPM_P1;HPM_P2
2022/01/29 00:01:33;;;;;;;;;19.50;15.50;;;;;9.23;64.88;103349.78;5071420;28;49720;-70
2022/01/29 00:03:58;;;;;;;;;20.25;15.00;;;;;9.26;64.96;103352.59;5070863;28;51951;-70
2022/01/29 00:06:24;;;;;;;;;18.00;16.50;;;;;9.30;64.49;103352.00;5069325;28;49743;-70
2022/01/29 00:08:51;;;;;;;;;16.50;15.75;;;;;9.09;65.19;103322.66;5069865;28;49837;-71
2022/01/29 00:11:17;;;;;;;;;17.00;14.75;;;;;9.28;64.95;103358.88;5070206;28;50135;-70
2022/01/29 00:13:43;;;;;;;;;16.00;13.50;;;;;9.29;64.70;103351.09;5070742;28;49812;-70
2022/01/29 00:16:09;;;;;;;;;13.00;12.25;;;;;9.15;63.99;103323.94;5070398;28;49946;-69
2022/01/29 00:18:35;;;;;;;;;17.50;14.75;;;;;9.13;64.40;103312.47;5071282;28;49695;-69
2022/01/29 00:21:01;;;;;;;;;16.75;16.75;;;;;9.25;64.67;103341.19;5071197;28;49907;-70
2022/01/29 00:23:27;;;;;;;;;17.50;15.75;;;;;9.12;64.37;103313.28;5069213;28;51819;-70
2022/01/29 00:25:52;;;;;;;;;16.25;14.25;;;;;9.19;64.86;103325.09;5070848;28;49827;-69
2022/01/29 00:28:18;;;;;;;;;18.25;16.50;;;;;9.11;63.85;103306.22;5071114;28;49845;-69
2022/01/29 00:30:44;;;;;;;;;18.25;17.25;;;;;9.07;64.42;103308.50;5070731;28;49942;-69
2022/01/29 00:33:11;;;;;;;;;19.50;16.50;;;;;9.06;64.69;103301.47;5070383;28;50537;-69
2022/01/29 00:35:36;;;;;;;;;17.50;15.75;;;;;9.08;64.94;103300.78;5070607;28;49726;-71
2022/01/29 00:38:02;;;;;;;;;15.75;13.00;;;;;9.14;64.99;103306.41;5069135;28;49825;-69
2022/01/29 00:40:28;;;;;;;;;19.00;16.00;;;;;9.23;64.70;103310.47;5070825;28;50352;-68
2022/01/29 00:42:53;;;;;;;;;17.25;13.25;;;;;9.20;64.39;103303.31;5070499;28;49848;-69
2022/01/29 00:45:19;;;;;;;;;20.00;15.75;;;;;9.21;64.27;103312.09;5070344;28;49906;-69
2022/01/29 00:47:44;;;;;;;;;14.50;14.50;;;;;9.21;64.64;103314.69;5070562;28;49690;-68
2022/01/29 00:50:11;;;;;;;;;16.75;15.25;;;;;9.27;64.93;103318.66;5070666;28;49856;-70
2022/01/29 00:52:38;;;;;;;;;17.75;14.00;;;;;9.26;64.65;103313.28;5069051;28;51861;-70
2022/01/29 00:55:05;;;;;;;;;17.25;17.25;;;;;9.18;65.42;103297.06;5070366;28;49787;-70
2022/01/29 00:57:33;;;;;;;;;13.50;13.50;;;;;9.14;64.50;103285.44;5069872;27;49918;-70
2022/01/29 00:59:58;;;;;;;;;17.75;17.50;;;;;9.05;64.81;103276.06;5070498;27;49961;-70
2022/01/29 01:02:23;;;;;;;;;19.25;16.25;;;;;9.11;65.82;103285.25;5070166;27;49778;-70
2022/01/29 01:04:49;;;;;;;;;15.00;13.50;;;;;9.17;65.98;103297.88;5069961;27;49802;-69
2022/01/29 01:07:14;;;;;;;;;14.25;14.25;;;;;9.17;66.15;103284.78;5070435;28;49862;-71
2022/01/29 01:09:40;;;;;;;;;18.00;15.50;;;;;9.25;66.69;103296.66;5070458;27;49979;-70
2022/01/29 01:12:06;;;;;;;;;19.00;19.00;;;;;9.12;66.70;103275.69;5069983;28;50704;-70
2022/01/29 01:14:32;;;;;;;;;14.00;12.75;;;;;9.16;66.74;103286.44;5069907;28;49980;-69
2022/01/29 01:16:57;;;;;;;;;20.75;17.50;;;;;9.08;66.49;103273.69;5068797;28;49916;-70
2022/01/29 01:19:25;;;;;;;;;15.00;13.75;;;;;8.97;67.56;103262.44;5070413;28;49628;-70
2022/01/29 01:21:55;;;;;;;;;17.75;16.00;;;;;9.08;67.54;103277.19;5069994;28;51025;-70
2022/01/29 01:24:22;;;;;;;;;18.50;17.50;;;;;9.18;67.12;103286.59;5070227;28;50077;-70
2022/01/29 01:26:48;;;;;;;;;19.00;16.75;;;;;9.03;67.32;103260.25;5071218;28;49708;-70
2022/01/29 01:29:14;;;;;;;;;16.75;14.75;;;;;9.06;67.51;103272.63;5073545;28;49562;-69
2022/01/29 01:31:39;;;;;;;;;20.25;17.50;;;;;8.92;68.40;103250.78;5073500;28;51048;-70
2022/01/29 01:34:06;;;;;;;;;14.00;12.75;;;;;9.02;67.42;103275.88;5073676;28;49864;-72
2022/01/29 01:36:35;;;;;;;;;16.25;14.00;;;;;8.99;68.46;103266.09;5073640;27;50018;-70
2022/01/29 01:39:06;;;;;;;;;9.00;8.00;;;;;9.00;68.75;103267.91;5073872;28;49768;-73
2022/01/29 01:41:37;;;;;;;;;17.00;15.75;;;;;8.99;69.58;103273.06;5073399;28;49936;-70
2022/01/29 01:44:03;;;;;;;;;13.25;12.75;;;;;9.04;69.87;103280.41;5073171;28;49668;-71
2022/01/29 01:46:29;;;;;;;;;17.50;15.50;;;;;9.04;69.24;103274.25;5071592;28;49790;-69
2022/01/29 01:48:55;;;;;;;;;17.75;13.25;;;;;8.87;70.04;103241.69;5073740;28;50066;-72
2022/01/29 01:51:21;;;;;;;;;18.25;16.00;;;;;8.91;69.69;103253.28;5073065;28;50787;-71
2022/01/29 01:53:47;;;;;;;;;16.00;14.50;;;;;8.85;69.77;103246.81;5073421;27;49605;-70
2022/01/29 01:56:13;;;;;;;;;15.50;15.50;;;;;8.86;69.86;103245.09;5066849;28;49929;-72
2022/01/29 01:58:38;;;;;;;;;17.00;16.00;;;;;8.99;69.90;103260.88;5073268;28;50141;-73
2022/01/29 02:01:03;;;;;;;;;17.00;15.75;;;;;9.05;70.02;103270.81;5071477;28;50835;-71
2022/01/29 02:03:29;;;;;;;;;20.50;17.00;;;;;9.04;70.42;103277.78;5073241;28;49674;-70
2022/01/29 02:05:55;;;;;;;;;20.25;16.50;;;;;8.95;69.77;103256.19;5072792;28;49978;-69
2022/01/29 02:08:21;;;;;;;;;12.75;12.50;;;;;8.92;70.32;103249.88;5073046;28;49675;-70
2022/01/29 02:10:48;;;;;;;;;18.00;17.25;;;;;8.82;70.45;103240.47;5071409;28;52355;-69
2022/01/29 02:13:13;;;;;;;;;16.50;12.00;;;;;8.74;70.94;103225.97;5073057;27;49748;-69
2022/01/29 02:15:39;;;;;;;;;19.75;16.25;;;;;8.84;70.06;103246.72;5072806;28;49933;-69
2022/01/29 02:18:05;;;;;;;;;19.50;17.50;;;;;8.85;70.19;103240.69;5073141;28;49549;-69
2022/01/29 02:20:32;;;;;;;;;17.50;13.00;;;;;8.93;69.81;103256.91;5072835;27;50712;-70
2022/01/29 02:23:00;;;;;;;;;22.50;19.75;;;;;8.87;70.77;103241.69;5072901;28;49608;-68
2022/01/29 02:25:28;;;;;;;;;16.00;12.75;;;;;8.90;71.03;103244.53;5072950;27;49742;-69
2022/01/29 02:27:55;;;;;;;;;14.00;12.00;;;;;8.81;70.46;103231.72;5072946;28;49850;-70
2022/01/29 02:30:20;;;;;;;;;14.75;13.75;;;;;8.79;70.61;103219.34;5072314;28;49725;-68
2022/01/29 02:32:46;;;;;;;;;17.50;17.00;;;;;8.72;71.18;103202.28;5072850;28;49569;-70
2022/01/29 02:35:11;;;;;;;;;22.25;21.00;;;;;8.82;70.72;103209.06;5071419;28;50423;-69
2022/01/29 02:37:36;;;;;;;;;15.50;13.00;;;;;7.95;70.93;103043.50;5071027;28;49838;-69
2022/01/29 02:40:02;;;;;;;;;17.75;14.00;;;;;8.86;70.97;103203.19;5072425;28;50138;-70
2022/01/29 02:42:28;;;;;;;;;18.75;13.25;;;;;8.78;70.59;103179.13;5072297;28;49873;-70
2022/01/29 02:44:53;;;;;;;;;17.50;14.75;;;;;8.96;70.86;103200.38;5070971;28;50351;-69
2022/01/29 02:47:31;;;;;;;;;9.75;9.75;;;;;8.68;70.58;103157.44;5071713;28;49861;-69
2022/01/29 02:49:56;;;;;;;;;15.75;15.75;;;;;8.87;71.22;103189.28;5072750;28;50465;-68
2022/01/29 02:52:22;;;;;;;;;18.75;15.50;;;;;8.92;71.28;103198.38;5072591;27;49900;-68
2022/01/29 02:54:47;;;;;;;;;17.25;14.75;;;;;8.77;70.95;103158.97;5072254;28;50346;-69
2022/01/29 02:57:13;;;;;;;;;13.50;13.50;;;;;8.94;71.87;103177.50;5071012;28;50048;-69
2022/01/29 02:59:38;;;;;;;;;17.75;17.50;;;;;8.82;71.07;103149.72;5071879;28;50671;-70
2022/01/29 03:02:03;;;;;;;;;11.25;11.25;;;;;8.62;70.90;103107.31;5072258;28;49841;-69
2022/01/29 03:04:29;;;;;;;;;19.25;13.25;;;;;8.91;71.20;103165.13;5072164;28;50199;-69
2022/01/29 03:06:54;;;;;;;;;17.25;14.25;;;;;8.63;71.65;103124.81;5065575;28;49892;-71
2022/01/29 03:09:19;;;;;;;;;21.00;16.75;;;;;8.84;71.69;103166.44;5071912;28;50847;-70
2022/01/29 03:11:45;;;;;;;;;17.00;12.75;;;;;8.89;72.07;103166.75;5072162;28;49846;-70
2022/01/29 03:14:10;;;;;;;;;17.75;13.25;;;;;8.86;71.66;103161.28;5070598;28;49673;-69
2022/01/29 03:16:35;;;;;;;;;15.00;13.75;;;;;8.91;72.07;103156.38;5072257;28;49823;-69
2022/01/29 03:19:01;;;;;;;;;16.75;14.50;;;;;8.93;71.82;103163.50;5071864;28;50534;-69
2022/01/29 03:21:26;;;;;;;;;21.50;14.75;;;;;8.84;72.07;103150.72;5071870;27;49609;-69
2022/01/29 03:23:51;;;;;;;;;16.25;14.00;;;;;8.91;72.46;103159.88;5071920;28;49790;-69
2022/01/29 03:26:17;;;;;;;;;15.00;14.25;;;;;8.84;71.82;103147.19;5072049;27;49749;-69
2022/01/29 03:28:43;;;;;;;;;15.75;12.00;;;;;8.82;72.40;103141.84;5071347;28;50759;-71
2022/01/29 03:31:08;;;;;;;;;12.50;10.75;;;;;8.80;72.57;103142.56;5071754;27;49620;-69
2022/01/29 03:33:34;;;;;;;;;15.50;13.25;;;;;8.78;72.42;103141.53;5071789;27;49822;-70
2022/01/29 03:35:59;;;;;;;;;17.00;15.25;;;;;8.79;72.52;103152.16;5072025;28;49880;-70
2022/01/29 03:38:24;;;;;;;;;12.75;10.00;;;;;8.83;72.98;103158.47;5071262;28;49932;-72
2022/01/29 03:40:51;;;;;;;;;12.75;12.75;;;;;8.79;72.03;103146.91;5071826;28;50007;-69
2022/01/29 03:43:25;;;;;;;;;11.50;11.50;;;;;8.89;72.47;103169.38;5070400;28;49829;-71
2022/01/29 03:45:51;;;;;;;;;14.50;12.25;;;;;8.86;72.81;103145.56;5071507;27;50452;-73
2022/01/29 03:48:16;;;;;;;;;17.00;13.75;;;;;8.91;72.87;103157.28;5071528;28;50639;-69
2022/01/29 03:50:41;;;;;;;;;14.50;14.50;;;;;8.80;72.35;103124.25;5070554;27;49690;-69
2022/01/29 03:53:07;;;;;;;;;11.75;11.75;;;;;8.83;72.78;103132.28;5071512;27;49946;-71
2022/01/29 03:55:32;;;;;;;;;12.00;11.25;;;;;8.83;73.07;103138.44;5070326;28;50032;-73
2022/01/29 03:57:58;;;;;;;;;12.50;11.25;;;;;8.20;72.94;103018.19;5071369;28;52251;-71
2022/01/29 04:00:23;;;;;;;;;15.25;14.00;;;;;8.81;72.99;103121.72;5071213;27;49923;-70
2022/01/29 04:02:48;;;;;;;;;17.75;12.00;;;;;8.83;72.54;103130.56;5071506;27;49811;-68
2022/01/29 04:05:14;;;;;;;;;14.25;14.00;;;;;8.85;72.81;103138.53;5071288;28;49866;-72
2022/01/29 04:07:41;;;;;;;;;14.25;13.50;;;;;8.94;72.76;103152.22;5071099;28;50567;-72
2022/01/29 04:10:06;;;;;;;;;15.00;13.50;;;;;8.80;72.76;103133.00;5071261;27;49793;-70
2022/01/29 04:12:38;;;;;;;;;14.25;14.25;;;;;8.86;72.51;103135.09;5071426;28;49986;-70
2022/01/29 04:15:04;;;;;;;;;14.25;13.50;;;;;8.89;73.12;103132.69;5071166;28;49803;-72
2022/01/29 04:17:29;;;;;;;;;14.75;12.25;;;;;8.94;72.76;103144.38;5069723;28;51636;-71
2022/01/29 04:19:55;;;;;;;;;18.50;14.50;;;;;8.93;73.26;103136.41;5071133;28;49699;-68
2022/01/29 04:22:20;;;;;;;;;15.50;13.50;;;;;8.76;72.51;103109.09;5071078;28;49761;-71
2022/01/29 04:24:45;;;;;;;;;16.75;14.00;;;;;8.90;73.51;103129.28;5071203;27;49614;-71
2022/01/29 04:27:18;;;;;;;;;19.00;15.25;;;;;8.98;72.76;103137.63;5070863;28;51309;-70
2022/01/29 04:30:09;;;;;;;;;16.25;13.25;;;;;8.94;72.68;103141.75;5070633;27;49987;-68
2022/01/29 04:35:06;;;;;;;;;14.50;11.50;;;;;9.06;72.51;103162.59;5071052;27;49597;-71
2022/01/29 04:37:32;;;;;;;;;13.00;12.25;;;;;9.06;72.49;103160.88;5070537;28;50123;-69
2022/01/29 04:39:57;;;;;;;;;17.75;16.50;;;;;9.08;72.76;103158.38;5070876;28;49862;-68
2022/01/29 04:42:22;;;;;;;;;12.00;11.75;;;;;9.05;73.32;103152.91;5069491;28;49770;-68
2022/01/29 04:44:48;;;;;;;;;18.75;17.50;;;;;8.16;73.45;102978.59;5069135;28;50149;-67
2022/01/29 04:47:13;;;;;;;;;15.25;12.75;;;;;9.11;73.02;103153.31;5070265;28;52241;-69
2022/01/29 04:49:38;;;;;;;;;18.50;15.25;;;;;9.05;74.11;103145.97;5070351;28;49807;-68
2022/01/29 04:52:04;;;;;;;;;13.00;11.75;;;;;8.86;74.06;103103.66;5070673;28;49751;-67
2022/01/29 04:54:29;;;;;;;;;12.25;12.25;;;;;9.00;73.98;103136.00;5070714;28;49894;-68
2022/01/29 04:56:55;;;;;;;;;17.00;16.75;;;;;8.93;73.62;103111.13;5070245;28;49915;-67
2022/01/29 04:59:20;;;;;;;;;18.00;13.25;;;;;8.94;73.61;103117.25;5070074;27;49993;-67
2022/01/29 05:01:45;;;;;;;;;14.75;14.00;;;;;8.82;74.32;103097.34;5068637;28;50270;-67
2022/01/29 05:04:11;;;;;;;;;26.00;19.25;;;;;8.98;73.87;103120.19;5070416;28;49684;-67
2022/01/29 05:06:36;;;;;;;;;12.25;12.25;;;;;9.04;73.91;103145.88;5070234;28;49922;-67
2022/01/29 05:09:03;;;;;;;;;16.50;11.00;;;;;9.06;73.68;103137.28;5070266;28;49836;-67
2022/01/29 05:11:28;;;;;;;;;17.75;14.50;;;;;9.09;73.38;103152.34;5070300;27;49916;-68
2022/01/29 05:13:54;;;;;;;;;13.50;12.50;;;;;8.96;74.05;103127.03;5070398;27;49782;-67
2022/01/29 05:27:04;;;;;;;;;12.50;12.25;;;;;8.96;74.17;103116.53;5069864;28;49707;-67
2022/01/29 05:29:33;;;;;;;;;15.00;12.25;;;;;9.14;73.48;103151.81;5069733;27;49789;-68
2022/01/29 05:32:00;;;;;;;;;15.25;14.00;;;;;9.12;73.57;103144.66;5070164;28;49792;-67
2022/01/29 05:34:26;;;;;;;;;12.50;12.50;;;;;8.94;74.18;103096.31;5070353;28;49616;-67
2022/01/29 05:36:53;;;;;;;;;16.75;13.00;;;;;9.09;74.48;103123.50;5069972;28;49952;-68
2022/01/29 05:39:18;;;;;;;;;17.25;13.00;;;;;9.10;73.38;103126.22;5069933;27;49523;-67
2022/01/29 05:41:44;;;;;;;;;20.50;16.75;;;;;8.93;74.01;103082.31;5069887;28;49740;-68
2022/01/29 05:44:09;;;;;;;;;12.75;11.75;;;;;9.08;73.60;103111.22;5069877;28;50020;-68
2022/01/29 05:46:34;;;;;;;;;17.25;16.25;;;;;9.15;73.17;103119.53;5069684;27;49961;-67
2022/01/29 05:49:00;;;;;;;;;13.25;13.25;;;;;9.02;74.02;103101.22;5069825;27;49720;-67
2022/01/29 05:51:29;;;;;;;;;19.00;17.00;;;;;8.58;74.10;103018.06;5070023;27;49971;-67
2022/01/29 05:53:56;;;;;;;;;15.75;13.75;;;;;9.22;73.67;103131.34;5069957;28;49900;-68
2022/01/29 05:56:21;;;;;;;;;12.00;12.00;;;;;9.08;74.33;103092.88;5069789;28;49959;-67
2022/01/29 05:58:46;;;;;;;;;18.75;16.75;;;;;9.04;73.82;103085.59;5069264;27;49768;-67
2022/01/29 06:01:12;;;;;;;;;11.25;11.25;;;;;9.14;72.88;103103.72;5069703;28;49969;-67
2022/01/29 06:03:37;;;;;;;;;18.75;14.75;;;;;9.27;74.41;103129.03;5068589;28;49743;-67
2022/01/29 06:06:02;;;;;;;;;15.25;14.00;;;;;9.12;74.09;103095.78;5069256;28;50809;-68
2022/01/29 06:08:28;;;;;;;;;17.00;14.00;;;;;9.12;73.46;103089.63;5069658;27;49826;-68
2022/01/29 06:10:53;;;;;;;;;14.25;13.00;;;;;9.18;74.25;103106.66;5068574;27;49980;-69
2022/01/29 06:13:18;;;;;;;;;13.50;13.00;;;;;9.21;73.86;103099.78;5071745;28;49815;-69
2022/01/29 06:15:49;;;;;;;;;11.00;9.75;;;;;9.15;73.40;103088.09;5071325;28;50494;-71
2022/01/29 06:18:18;;;;;;;;;12.00;12.00;;;;;9.31;73.70;103120.53;5071606;28;49757;-68
2022/01/29 06:20:55;;;;;;;;;12.50;10.50;;;;;9.28;73.88;103123.88;5071559;28;49897;-67
2022/01/29 06:23:28;;;;;;;;;14.75;13.00;;;;;9.32;73.55;103114.47;5071756;28;49991;-67
2022/01/29 06:25:53;;;;;;;;;18.50;14.00;;;;;9.26;74.00;103108.84;5071381;28;51878;-71
2022/01/29 06:28:19;;;;;;;;;12.75;12.50;;;;;9.34;73.36;103128.56;5066275;28;50001;-71
2022/01/29 06:30:44;;;;;;;;;12.25;11.25;;;;;9.24;73.95;103095.63;5071204;28;49632;-68
2022/01/29 06:33:12;;;;;;;;;9.25;9.25;;;;;9.25;73.55;103107.03;5072873;28;49561;-68
2022/01/29 06:35:40;;;;;;;;;15.50;13.75;;;;;9.24;73.54;103100.88;5071027;28;51764;-68
2022/01/29 06:38:06;;;;;;;;;17.00;14.00;;;;;8.83;73.92;103012.72;5072581;28;49714;-70
2022/01/29 06:40:33;;;;;;;;;17.25;13.75;;;;;9.42;73.21;103117.78;5072765;28;49668;-67
2022/01/29 06:42:58;;;;;;;;;11.75;10.00;;;;;9.23;73.28;103079.81;5072957;27;49706;-69
2022/01/29 06:45:24;;;;;;;;;11.75;11.75;;;;;9.36;73.72;103095.50;5070702;28;51300;-69
2022/01/29 06:47:50;;;;;;;;;12.75;12.00;;;;;9.35;73.72;103096.31;5072443;28;49865;-69
2022/01/29 06:50:15;;;;;;;;;10.25;10.25;;;;;9.33;72.97;103085.72;5072694;28;49710;-69
2022/01/29 06:52:41;;;;;;;;;19.25;15.75;;;;;9.29;74.36;103081.13;5072607;28;49706;-68
2022/01/29 06:55:06;;;;;;;;;14.75;14.00;;;;;9.36;73.92;103105.97;5072274;27;49805;-71
2022/01/29 06:57:32;;;;;;;;;11.50;10.25;;;;;9.45;73.73;103114.44;5072266;28;49779;-71
2022/01/29 06:59:57;;;;;;;;;15.50;14.25;;;;;9.49;73.53;103129.56;5072299;28;49640;-69
2022/01/29 07:02:23;;;;;;;;;10.75;8.00;;;;;9.40;73.13;103094.91;5072315;28;50001;-71
2022/01/29 07:04:48;;;;;;;;;13.00;12.75;;;;;9.43;73.92;103103.84;5072065;28;50595;-70
2022/01/29 07:07:13;;;;;;;;;8.75;8.75;;;;;9.49;74.11;103108.59;5072381;28;50060;-70
2022/01/29 07:09:39;;;;;;;;;12.00;12.00;;;;;9.48;73.73;103114.63;5072277;28;49807;-69
2022/01/29 07:12:09;;;;;;;;;10.75;9.50;;;;;9.50;73.29;103110.41;5072376;27;49767;-71
2022/01/29 07:14:39;;;;;;;;;7.75;7.75;;;;;9.51;73.44;103116.53;5071778;28;50030;-72
2022/01/29 07:17:12;;;;;;;;;10.50;9.75;;;;;9.41;73.75;103089.75;5071751;28;49794;-72
2022/01/29 07:19:38;;;;;;;;;9.25;7.00;;;;;9.27;72.95;103063.50;5072045;28;49758;-68
2022/01/29 07:22:05;;;;;;;;;11.00;8.50;;;;;9.44;73.61;103091.66;5070885;28;49667;-67
2022/01/29 07:24:31;;;;;;;;;9.75;8.75;;;;;9.35;73.86;103078.88;5071765;28;51025;-67
2022/01/29 07:26:57;;;;;;;;;8.00;8.00;;;;;9.38;73.96;103078.19;5071958;28;49894;-67
2022/01/29 07:29:22;;;;;;;;;8.75;8.75;;;;;9.44;73.46;103078.53;5071754;28;49775;-68
2022/01/29 07:31:48;;;;;;;;;9.00;7.75;;;;;9.22;73.41;103038.69;5072214;28;49617;-67
2022/01/29 07:34:13;;;;;;;;;10.00;9.50;;;;;9.37;73.12;103073.75;5070201;28;50992;-68
2022/01/29 07:36:38;;;;;;;;;10.00;10.00;;;;;9.54;73.80;103109.75;5070416;28;49880;-66
2022/01/29 07:39:04;;;;;;;;;9.50;7.00;;;;;9.34;73.77;103069.19;5071990;27;49851;-67
2022/01/29 07:41:29;;;;;;;;;8.00;7.25;;;;;9.49;74.16;103097.19;5072101;28;50566;-68
2022/01/29 07:43:55;;;;;;;;;7.00;7.00;;;;;9.49;73.55;103099.81;5071200;28;50865;-67
2022/01/29 07:46:20;;;;;;;;;9.50;9.50;;;;;9.55;73.74;103101.09;5071620;28;50186;-67
2022/01/29 07:48:45;;;;;;;;;12.75;10.50;;;;;9.36;73.40;103062.34;5071674;28;49772;-68
2022/01/29 07:51:11;;;;;;;;;12.00;8.00;;;;;9.12;73.84;103017.16;5071737;28;49654;-69
2022/01/29 07:53:36;;;;;;;;;8.00;8.00;;;;;9.61;73.80;103096.22;5071348;27;50822;-67
2022/01/29 07:56:01;;;;;;;;;9.00;9.00;;;;;9.52;73.13;103077.31;5069684;27;49865;-68
2022/01/29 07:58:27;;;;;;;;;8.50;8.50;;;;;9.64;73.75;103087.63;5072765;27;50223;-68
2022/01/29 08:00:53;;;;;;;;;8.50;8.50;;;;;9.62;73.63;103087.53;5071461;28;49675;-68
2022/01/29 08:03:18;;;;;;;;;8.50;7.00;;;;;9.65;74.08;103089.44;5070863;27;50209;-67
2022/01/29 08:05:44;;;;;;;;;7.00;6.00;;;;;9.66;73.64;103086.94;5074077;27;49946;-68
2022/01/29 08:08:09;;;;;;;;;7.75;7.25;;;;;9.66;73.65;103080.78;5071344;27;50339;-68
2022/01/29 08:10:34;;;;;;;;;6.25;4.50;;;;;9.65;73.94;103090.38;5070033;28;49942;-68
2022/01/29 08:12:59;;;;;;;;;7.75;6.75;;;;;9.50;74.20;103051.81;5071074;28;49877;-68
2022/01/29 08:15:25;;;;;;;;;7.75;5.00;;;;;9.65;73.94;103076.31;5070896;28;50059;-68
2022/01/29 08:17:50;;;;;;;;;8.25;7.00;;;;;9.76;73.81;103091.03;5071293;28;49838;-68
2022/01/29 08:20:16;;;;;;;;;7.50;6.25;;;;;9.09;74.56;102977.69;5071486;28;49780;-69
2022/01/29 08:22:41;;;;;;;;;6.00;6.00;;;;;9.80;73.99;103107.84;5070916;28;50986;-68
2022/01/29 08:25:07;;;;;;;;;6.75;6.75;;;;;9.74;74.65;103090.91;5071050;28;49861;-68
2022/01/29 08:27:33;;;;;;;;;7.75;5.50;;;;;9.82;74.74;103100.97;5071083;28;49774;-68
2022/01/29 08:29:58;;;;;;;;;8.00;8.00;;;;;9.82;74.29;103094.00;5069626;28;49878;-68
2022/01/29 08:32:24;;;;;;;;;4.50;4.50;;;;;9.78;74.46;103088.50;5070914;28;50056;-67
2022/01/29 08:34:49;;;;;;;;;7.00;5.75;;;;;9.63;74.75;103052.63;5070629;28;49707;-67
2022/01/29 08:37:14;;;;;;;;;7.75;7.00;;;;;9.72;73.93;103057.53;5070676;28;50145;-68
2022/01/29 08:39:40;;;;;;;;;6.25;6.25;;;;;9.81;74.41;103072.94;5070970;28;49588;-68
2022/01/29 08:42:07;;;;;;;;;5.75;5.00;;;;;9.95;74.54;103098.31;5070482;28;50698;-68
2022/01/29 08:44:32;;;;;;;;;6.50;6.50;;;;;9.92;74.50;103096.38;5070148;27;49840;-68
2022/01/29 08:46:57;;;;;;;;;5.00;3.50;;;;;9.87;74.53;103073.31;5070635;28;49693;-67
2022/01/29 08:49:23;;;;;;;;;2.75;2.00;;;;;9.83;74.52;103061.72;5069399;28;50061;-68
2022/01/29 08:51:48;;;;;;;;;10.00;6.25;;;;;9.99;74.51;103093.31;5071889;27;50460;-68
2022/01/29 08:54:14;;;;;;;;;6.25;3.75;;;;;9.96;74.23;103081.75;5080098;27;49682;-69
2022/01/29 08:56:39;;;;;;;;;6.00;4.00;;;;;9.95;74.40;103067.72;5070473;28;50031;-69
2022/01/29 08:59:05;;;;;;;;;4.75;4.75;;;;;9.80;73.38;103026.53;5070402;27;49644;-69
2022/01/29 09:01:30;;;;;;;;;3.25;3.25;;;;;10.06;73.62;103073.59;5073036;28;50058;-77
2022/01/29 09:03:56;;;;;;;;;5.00;5.00;;;;;10.12;73.96;103076.56;5069290;28;49820;-73
2022/01/29 09:06:22;;;;;;;;;7.00;7.00;;;;;9.99;73.74;103050.44;5073224;28;49695;-70
2022/01/29 09:08:50;;;;;;;;;6.50;6.50;;;;;10.25;73.40;103091.38;5073538;27;49840;-72
2022/01/29 09:11:16;;;;;;;;;5.00;5.00;;;;;10.24;74.23;103071.22;5068630;28;50627;-69
2022/01/29 09:13:42;;;;;;;;;3.00;3.00;;;;;10.40;73.66;103084.41;5068222;28;50173;-66
2022/01/29 09:16:07;;;;;;;;;3.25;3.25;;;;;10.20;73.63;103041.19;5064744;28;49951;-66
2022/01/29 09:18:32;;;;;;;;;6.25;5.50;;;;;10.45;73.10;103071.56;5064495;28;50108;-66
2022/01/29 09:20:58;;;;;;;;;8.25;7.00;;;;;10.51;73.07;103070.16;5069996;28;50491;-67
2022/01/29 09:23:23;;;;;;;;;8.50;8.50;;;;;10.50;73.06;103055.22;5063304;28;49960;-67
2022/01/29 09:25:49;;;;;;;;;3.75;3.25;;;;;10.62;72.81;103062.03;5069337;28;50093;-67
2022/01/29 09:28:14;;;;;;;;;4.50;3.00;;;;;10.53;72.26;103049.25;5068594;28;49743;-67
2022/01/29 09:30:40;;;;;;;;;3.50;3.50;;;;;10.77;71.95;103052.38;5068868;28;52526;-69
2022/01/29 09:33:05;;;;;;;;;5.25;3.75;;;;;10.85;72.16;103061.59;5070935;28;49683;-72
2022/01/29 09:35:31;;;;;;;;;2.25;2.25;;;;;10.70;71.82;103019.56;5070236;27;49810;-71
2022/01/29 09:37:57;;;;;;;;;6.50;4.00;;;;;10.88;71.59;103052.13;5070459;28;50001;-66
2022/01/29 09:40:22;;;;;;;;;3.00;3.00;;;;;10.99;71.77;103070.22;5069756;28;50760;-65
2022/01/29 09:42:50;;;;;;;;;3.00;3.00;;;;;10.96;71.73;103062.19;5070052;28;49735;-64
2022/01/29 09:45:18;;;;;;;;;7.00;4.00;;;;;11.01;71.68;103069.53;5070034;28;49726;-65
2022/01/29 09:47:46;;;;;;;;;5.00;5.00;;;;;10.98;71.84;103071.94;5071071;28;50261;-74
2022/01/29 09:50:14;;;;;;;;;4.75;4.00;;;;;10.96;72.00;103078.84;5071975;28;52784;-70
2022/01/29 09:52:40;;;;;;;;;1.75;1.00;;;;;10.88;71.88;103060.03;5073714;27;49891;-68
2022/01/29 09:55:07;;;;;;;;;3.25;3.25;;;;;10.88;71.56;103052.13;5073096;27;49813;-70
2022/01/29 09:57:33;;;;;;;;;4.00;4.00;;;;;10.73;71.38;103032.91;5073733;27;49905;-66
2022/01/29 09:59:58;;;;;;;;;5.00;5.00;;;;;10.95;71.88;103063.91;5073078;28;51097;-68
2022/01/29 10:02:24;;;;;;;;;8.00;6.50;;;;;10.87;71.98;103058.22;5073306;27;49754;-70
2022/01/29 10:04:55;;;;;;;;;5.00;5.00;;;;;10.26;71.72;102943.56;5073152;28;49916;-72
2022/01/29 10:07:28;;;;;;;;;15.00;14.00;;;;;10.69;72.26;103016.88;5073412;28;49821;-64
2022/01/29 10:09:55;;;;;;;;;7.00;7.00;;;;;10.83;71.79;103029.06;5072952;28;50822;-71
2022/01/29 10:12:26;;;;;;;;;5.50;5.50;;;;;11.03;72.31;103060.00;5071662;28;49987;-71
2022/01/29 10:15:04;;;;;;;;;3.25;2.75;;;;;10.91;71.93;103027.78;5072929;28;50303;-72
2022/01/29 10:17:50;;;;;;;;;4.25;4.25;;;;;11.02;71.82;103036.25;5073081;28;50164;-72
2022/01/29 10:20:23;;;;;;;;;2.75;2.75;;;;;11.32;71.59;103076.47;5072726;28;50977;-68
2022/01/29 10:22:52;;;;;;;;;4.50;4.50;;;;;11.27;70.95;103068.31;5071564;28;49798;-71
2022/01/29 10:25:23;;;;;;;;;6.25;6.25;;;;;11.36;71.08;103068.81;5072021;28;49640;-77
2022/01/29 10:28:08;;;;;;;;;4.75;4.00;;;;;10.93;70.76;102968.31;5071497;28;49965;-74
2022/01/29 10:30:35;;;;;;;;;4.25;4.25;;;;;11.30;70.35;103033.41;5070013;28;52780;-73
2022/01/29 10:33:27;;;;;;;;;4.25;4.00;;;;;11.73;70.03;103079.56;5069764;28;49750;-75
2022/01/29 10:36:01;;;;;;;;;4.75;4.50;;;;;11.41;69.81;103020.00;5070465;28;49903;-75
2022/01/29 10:38:41;;;;;;;;;2.50;2.50;;;;;11.71;69.69;103036.50;5072335;28;49889;-80
2022/01/29 10:41:13;;;;;;;;;5.50;3.00;;;;;11.70;69.24;103045.22;5070569;28;51482;-76
2022/01/29 10:43:58;;;;;;;;;5.25;4.25;;;;;11.86;69.40;103059.19;5070522;28;49918;-74
2022/01/29 10:46:31;;;;;;;;;4.50;4.50;;;;;11.41;69.74;102982.28;5065601;28;49764;-74
2022/01/29 10:48:59;;;;;;;;;4.00;3.00;;;;;11.39;69.22;102987.47;5066796;28;50014;-74
2022/01/29 10:51:25;;;;;;;;;3.25;2.00;;;;;11.28;68.86;102962.31;5072083;28;51034;-73
2022/01/29 10:53:54;;;;;;;;;4.25;4.25;;;;;10.60;69.05;102839.56;5072390;28;49847;-75
2022/01/29 10:56:20;;;;;;;;;2.25;2.25;;;;;9.97;68.90;102734.59;5072425;28;49652;-75
2022/01/29 10:58:50;;;;;;;;;6.50;3.25;;;;;12.02;69.01;103075.88;5071866;28;49914;-75
2022/01/29 11:01:23;;;;;;;;;2.50;2.50;;;;;11.20;68.93;102946.97;5072067;27;50332;-76
2022/01/29 11:03:52;;;;;;;;;3.50;2.50;;;;;12.04;69.27;103094.38;5072075;28;49809;-76
2022/01/29 11:06:21;;;;;;;;;1.50;1.50;;;;;11.70;69.36;103020.63;5072470;27;49993;-80
2022/01/29 11:08:47;;;;;;;;;3.25;3.25;;;;;11.90;69.08;103051.56;5072693;27;49613;-75
2022/01/29 11:11:13;;;;;;;;;2.00;2.00;;;;;12.09;69.06;103085.00;5070748;28;52584;-73
2022/01/29 11:13:42;;;;;;;;;1.50;1.50;;;;;11.82;68.68;103026.56;5071981;28;49751;-74
2022/01/29 11:16:08;;;;;;;;;2.00;2.00;;;;;11.17;68.82;102919.66;5072166;28;50005;-78
2022/01/29 11:18:34;;;;;;;;;2.00;2.00;;;;;12.04;69.15;103071.56;5072217;28;49891;-77
2022/01/29 11:21:01;;;;;;;;;2.00;2.00;;;;;11.76;68.97;103007.78;5071945;28;51204;-74
2022/01/29 11:23:29;;;;;;;;;1.00;1.00;;;;;11.88;69.12;103033.88;5072041;28;49612;-77
2022/01/29 11:25:56;;;;;;;;;1.25;1.25;;;;;12.05;69.33;103072.47;5072020;28;50196;-77
2022/01/29 11:28:28;;;;;;;;;1.00;1.00;;;;;11.91;69.03;103036.66;5073417;28;50117;-77
2022/01/29 11:31:13;;;;;;;;;0.00;0.00;;;;;12.17;69.37;103082.75;5073912;28;50000;-76
2022/01/29 11:33:57;;;;;;;;;1.75;0.50;;;;;12.14;69.29;103082.59;5072728;28;49963;-69